createdAt,value
2018-05-29T00:00:53.322Z,6.60
2018-05-29T00:01:53.254Z,7.30
2018-05-29T00:02:53.182Z,6.90
2018-05-29T00:03:53.112Z,6.60
2018-05-29T00:04:53.042Z,6.90
2018-05-29T00:05:52.972Z,7.80
2018-05-29T00:06:52.901Z,7.30
2018-05-29T00:07:52.830Z,7.70
2018-05-29T00:08:52.760Z,7.90
2018-05-29T00:09:52.691Z,7.60
2018-05-29T00:10:52.620Z,7.50
2018-05-29T00:11:52.550Z,6.90
2018-05-29T00:12:52.483Z,7.40
2018-05-29T00:13:52.409Z,8.10
2018-05-29T00:14:52.338Z,8.00
2018-05-29T00:15:52.267Z,7.80
2018-05-29T00:16:52.197Z,7.80
2018-05-29T00:17:52.128Z,7.80
2018-05-29T00:18:52.056Z,8.70
2018-05-29T00:19:51.986Z,7.50
2018-05-29T00:20:51.916Z,7.70
2018-05-29T00:21:51.846Z,7.40
2018-05-29T00:22:51.774Z,7.50
2018-05-29T00:23:51.703Z,7.00
2018-05-29T00:24:51.637Z,8.80
2018-05-29T00:25:51.562Z,7.60
2018-05-29T00:26:51.492Z,7.30
2018-05-29T00:27:51.421Z,7.00
2018-05-29T00:28:51.351Z,7.40
2018-05-29T00:29:51.282Z,9.30
2018-05-29T00:30:51.210Z,7.50
2018-05-29T00:31:51.143Z,7.60
2018-05-29T00:32:51.069Z,8.70
2018-05-29T00:33:51.004Z,8.70
2018-05-29T00:34:50.928Z,7.50
2018-05-29T00:35:50.859Z,8.90
2018-05-29T00:36:50.789Z,8.30
2018-05-29T00:37:50.878Z,7.60
2018-05-29T00:38:50.646Z,9.60
2018-05-29T00:39:50.576Z,7.60
2018-05-29T00:40:50.505Z,7.00
2018-05-29T00:41:50.435Z,8.20
2018-05-29T00:42:50.363Z,7.60
2018-05-29T00:43:50.293Z,7.30
2018-05-29T00:44:50.223Z,6.70
2018-05-29T00:45:50.156Z,7.60
2018-05-29T00:46:50.083Z,7.20
2018-05-29T00:47:50.012Z,8.00
2018-05-29T00:48:49.942Z,7.10
2018-05-29T00:49:49.873Z,8.10
2018-05-29T00:50:49.800Z,7.60
2018-05-29T00:51:49.729Z,7.70
2018-05-29T00:52:49.660Z,7.50
2018-05-29T00:53:49.590Z,7.00
2018-05-29T00:54:49.520Z,7.80
2018-05-29T00:55:49.449Z,10.80
2018-05-29T00:56:49.378Z,7.70
2018-05-29T00:57:49.308Z,8.60
2018-05-29T00:58:49.236Z,8.00
2018-05-29T00:59:49.165Z,7.60
2018-05-29T01:00:49.096Z,8.30
2018-05-29T01:01:49.026Z,8.50
2018-05-29T01:02:48.955Z,8.20
2018-05-29T01:03:48.885Z,8.40
2018-05-29T01:04:48.813Z,7.20
2018-05-29T01:05:48.743Z,9.00
2018-05-29T01:06:48.676Z,7.70
2018-05-29T01:07:48.602Z,8.10
2018-05-29T01:08:48.531Z,9.40
2018-05-29T01:09:48.461Z,7.70
2018-05-29T01:10:48.390Z,7.00
2018-05-29T01:11:48.321Z,8.10
2018-05-29T01:12:48.251Z,7.90
2018-05-29T01:13:48.181Z,7.70
2018-05-29T01:14:48.108Z,9.20
2018-05-29T01:15:48.038Z,8.90
2018-05-29T01:16:47.969Z,7.00
2018-05-29T01:17:47.897Z,8.50
2018-05-29T01:18:47.826Z,7.40
2018-05-29T01:19:47.760Z,8.50
2018-05-29T01:20:47.684Z,8.30
2018-05-29T01:21:47.619Z,7.00
2018-05-29T01:22:47.547Z,7.50
2018-05-29T01:23:47.473Z,8.50
2018-05-29T01:24:47.404Z,9.20
2018-05-29T01:25:47.331Z,8.50
2018-05-29T01:26:47.261Z,7.40
2018-05-29T01:27:47.191Z,7.20
2018-05-29T01:28:47.119Z,7.60
2018-05-29T01:29:47.049Z,8.60
2018-05-29T01:30:46.980Z,7.50
2018-05-29T01:31:46.906Z,9.60
2018-05-29T01:32:46.837Z,7.10
2018-05-29T01:33:46.769Z,8.80
2018-05-29T01:34:46.849Z,7.80
2018-05-29T01:35:54.892Z,9.40
2018-05-29T01:36:46.552Z,7.70
2018-05-29T01:37:46.482Z,8.30
2018-05-29T01:38:46.411Z,7.70
2018-05-29T01:39:46.340Z,8.60
2018-05-29T01:40:46.271Z,9.00
2018-05-29T01:41:46.200Z,7.20
2018-05-29T01:42:46.128Z,8.20
2018-05-29T01:43:46.058Z,9.20
2018-05-29T01:44:45.986Z,7.80
2018-05-29T01:45:45.916Z,7.50
2018-05-29T01:46:45.844Z,7.70
2018-05-29T01:47:45.774Z,7.60
2018-05-29T01:48:45.708Z,10.90
2018-05-29T01:49:45.633Z,7.50
2018-05-29T01:50:45.562Z,8.60
2018-05-29T01:51:45.490Z,8.70
2018-05-29T01:52:45.420Z,7.70
2018-05-29T01:53:45.349Z,7.50
2018-05-29T01:54:45.277Z,10.10
2018-05-29T01:55:45.205Z,8.30
2018-05-29T01:56:45.137Z,9.30
2018-05-29T01:57:45.067Z,10.10
2018-05-29T01:58:44.992Z,9.00
2018-05-29T01:59:44.930Z,8.60
2018-05-29T02:00:44.852Z,7.80
2018-05-29T02:01:44.782Z,10.40
2018-05-29T02:02:44.709Z,8.30
2018-05-29T02:03:44.639Z,7.70
2018-05-29T02:04:44.570Z,8.90
2018-05-29T02:05:44.496Z,7.70
2018-05-29T02:06:44.425Z,7.40
2018-05-29T02:07:44.354Z,9.00
2018-05-29T02:08:44.285Z,7.20
2018-05-29T02:09:44.212Z,8.00
2018-05-29T02:10:44.141Z,9.70
2018-05-29T02:11:44.070Z,7.70
2018-05-29T02:12:43.998Z,8.60
2018-05-29T02:13:43.930Z,8.00
2018-05-29T02:14:43.856Z,9.60
2018-05-29T02:15:43.788Z,9.40
2018-05-29T02:16:43.719Z,7.40
2018-05-29T02:17:43.642Z,10.70
2018-05-29T02:18:43.571Z,8.90
2018-05-29T02:19:43.503Z,8.60
2018-05-29T02:20:43.430Z,9.60
2018-05-29T02:21:43.359Z,7.80
2018-05-29T02:22:43.286Z,8.60
2018-05-29T02:23:43.215Z,11.10
2018-05-29T02:24:43.144Z,8.60
2018-05-29T02:25:43.073Z,11.00
2018-05-29T02:26:43.001Z,9.10
2018-05-29T02:27:42.932Z,8.70
2018-05-29T02:28:42.859Z,9.70
2018-05-29T02:29:42.789Z,8.10
2018-05-29T02:30:42.716Z,10.90
2018-05-29T02:31:42.645Z,12.30
2018-05-29T02:32:42.574Z,8.00
2018-05-29T02:33:42.504Z,9.40
2018-05-29T02:34:42.433Z,10.40
2018-05-29T02:35:42.362Z,9.20
2018-05-29T02:36:42.292Z,9.90
2018-05-29T02:37:42.218Z,8.50
2018-05-29T02:38:42.145Z,8.30
2018-05-29T02:39:42.077Z,9.40
2018-05-29T02:40:42.003Z,8.20
2018-05-29T02:41:41.933Z,8.30
2018-05-29T02:42:41.861Z,9.70
2018-05-29T02:43:41.790Z,9.10
2018-05-29T02:44:41.718Z,9.00
2018-05-29T02:45:41.647Z,8.00
2018-05-29T02:46:41.575Z,10.10
2018-05-29T02:47:41.504Z,10.20
2018-05-29T02:48:41.434Z,10.90
2018-05-29T02:49:41.361Z,8.50
2018-05-29T02:50:41.288Z,9.60
2018-05-29T02:51:41.218Z,10.80
2018-05-29T02:52:41.152Z,10.00
2018-05-29T02:53:41.075Z,10.20
2018-05-29T02:54:41.001Z,9.60
2018-05-29T02:55:40.933Z,8.50
2018-05-29T02:56:40.860Z,10.20
2018-05-29T02:57:40.790Z,10.20
2018-05-29T02:58:40.716Z,10.60
2018-05-29T02:59:40.645Z,9.40
2018-05-29T03:00:40.574Z,9.00
2018-05-29T03:01:40.503Z,9.30
2018-05-29T03:02:40.430Z,10.90
2018-05-29T03:03:40.358Z,10.00
2018-05-29T03:04:40.287Z,9.50
2018-05-29T03:05:40.216Z,8.60
2018-05-29T03:06:40.143Z,11.00
2018-05-29T03:07:40.073Z,10.30
2018-05-29T03:08:40.000Z,9.00
2018-05-29T03:09:39.930Z,10.80
2018-05-29T03:10:39.856Z,9.20
2018-05-29T03:11:39.792Z,9.50
2018-05-29T03:12:39.714Z,10.90
2018-05-29T03:13:39.644Z,11.70
2018-05-29T03:14:39.572Z,10.30
2018-05-29T03:15:39.499Z,11.10
2018-05-29T03:16:39.428Z,10.00
2018-05-29T03:17:39.356Z,12.10
2018-05-29T03:18:39.286Z,9.60
2018-05-29T03:19:39.213Z,12.30
2018-05-29T03:20:39.142Z,9.10
2018-05-29T03:21:39.070Z,10.00
2018-05-29T03:22:39.001Z,13.60
2018-05-29T03:23:38.927Z,10.20
2018-05-29T03:24:38.855Z,11.50
2018-05-29T03:25:38.785Z,10.40
2018-05-29T03:26:38.715Z,10.70
2018-05-29T03:27:38.641Z,9.70
2018-05-29T03:28:38.570Z,9.60
2018-05-29T03:29:38.499Z,11.30
2018-05-29T03:30:38.428Z,10.00
2018-05-29T03:31:38.356Z,12.50
2018-05-29T03:32:38.285Z,10.80
2018-05-29T03:33:38.213Z,11.00
2018-05-29T03:34:38.141Z,10.50
2018-05-29T03:35:38.070Z,11.80
2018-05-29T03:36:37.998Z,12.30
2018-05-29T03:37:37.929Z,10.30
2018-05-29T03:38:37.856Z,10.90
2018-05-29T03:39:37.785Z,10.10
2018-05-29T03:40:37.714Z,10.40
2018-05-29T03:41:37.643Z,11.10
2018-05-29T03:42:37.571Z,12.20
2018-05-29T03:43:37.501Z,10.30
2018-05-29T03:44:37.428Z,13.50
2018-05-29T03:45:37.358Z,10.40
2018-05-29T03:46:37.285Z,10.70
2018-05-29T03:47:37.215Z,10.70
2018-05-29T03:48:37.144Z,10.90
2018-05-29T03:49:37.072Z,10.80
2018-05-29T03:50:37.000Z,9.20
2018-05-29T03:51:36.929Z,10.20
2018-05-29T03:52:36.858Z,11.50
2018-05-29T03:53:36.787Z,9.80
2018-05-29T03:54:36.715Z,11.40
2018-05-29T03:55:36.643Z,9.90
2018-05-29T03:56:36.572Z,11.50
2018-05-29T03:57:36.500Z,10.50
2018-05-29T03:58:36.429Z,9.90
2018-05-29T03:59:36.357Z,11.50
2018-05-29T04:00:36.286Z,11.10
2018-05-29T04:01:36.217Z,10.90
2018-05-29T04:02:36.146Z,12.20
2018-05-29T04:03:36.072Z,10.40
2018-05-29T04:04:36.002Z,10.70
2018-05-29T04:05:35.929Z,9.60
2018-05-29T04:06:35.856Z,11.10
2018-05-29T04:07:35.785Z,10.60
2018-05-29T04:08:35.714Z,9.70
2018-05-29T04:09:35.643Z,12.50
2018-05-29T04:10:35.574Z,9.90
2018-05-29T04:11:35.501Z,13.60
2018-05-29T04:12:35.579Z,11.20
2018-05-29T04:13:35.358Z,11.20
2018-05-29T04:14:35.286Z,11.90
2018-05-29T04:15:35.214Z,10.30
2018-05-29T04:16:35.144Z,10.10
2018-05-29T04:17:35.073Z,10.80
2018-05-29T04:18:35.001Z,13.60
2018-05-29T04:19:34.928Z,10.00
2018-05-29T04:20:34.858Z,12.10
2018-05-29T04:21:34.791Z,11.80
2018-05-29T04:22:34.716Z,11.70
2018-05-29T04:23:34.649Z,11.10
2018-05-29T04:24:34.572Z,12.80
2018-05-29T04:25:34.502Z,13.00
2018-05-29T04:26:34.430Z,12.70
2018-05-29T04:27:34.358Z,11.70
2018-05-29T04:28:34.289Z,12.50
2018-05-29T04:29:34.217Z,11.00
2018-05-29T04:30:34.144Z,12.60
2018-05-29T04:31:34.074Z,11.10
2018-05-29T04:32:34.003Z,11.70
2018-05-29T04:33:33.941Z,11.80
2018-05-29T04:34:33.860Z,10.30
2018-05-29T04:35:33.789Z,11.60
2018-05-29T04:36:33.720Z,14.50
2018-05-29T04:37:33.649Z,10.30
2018-05-29T04:38:33.576Z,10.70
2018-05-29T04:39:33.506Z,11.20
2018-05-29T04:40:33.435Z,12.90
2018-05-29T04:41:33.366Z,13.00
2018-05-29T04:42:33.293Z,12.00
2018-05-29T04:43:33.222Z,12.30
2018-05-29T04:44:33.157Z,10.90
2018-05-29T04:45:33.083Z,10.90
2018-05-29T04:46:33.009Z,13.10
2018-05-29T04:47:32.941Z,10.60
2018-05-29T04:48:32.869Z,10.20
2018-05-29T04:49:32.797Z,10.20
2018-05-29T04:50:32.726Z,11.60
2018-05-29T04:51:32.655Z,12.10
2018-05-29T04:52:32.589Z,10.60
2018-05-29T04:53:32.515Z,12.50
2018-05-29T04:54:32.443Z,11.10
2018-05-29T04:55:32.373Z,11.90
2018-05-29T04:56:32.351Z,12.00
2018-05-29T04:57:32.238Z,10.10
2018-05-29T04:58:32.164Z,11.20
2018-05-29T04:59:32.093Z,13.20
2018-05-29T05:00:32.021Z,11.30
2018-05-29T05:01:31.952Z,11.20
2018-05-29T05:02:31.895Z,10.60
2018-05-29T05:03:31.809Z,12.70
2018-05-29T05:04:31.746Z,12.10
2018-05-29T05:05:31.670Z,11.20
2018-05-29T05:06:31.603Z,10.50
2018-05-29T05:07:31.530Z,11.60
2018-05-29T05:08:31.460Z,10.80
2018-05-29T05:09:31.390Z,12.10
2018-05-29T05:10:31.320Z,11.10
2018-05-29T05:11:31.250Z,10.50
2018-05-29T05:12:31.185Z,11.40
2018-05-29T05:13:31.111Z,11.10
2018-05-29T05:14:31.042Z,12.00
2018-05-29T05:15:30.971Z,11.30
2018-05-29T05:16:30.901Z,11.40
2018-05-29T05:17:30.832Z,11.10
2018-05-29T05:18:30.761Z,12.90
2018-05-29T05:19:30.690Z,10.60
2018-05-29T05:20:30.626Z,12.00
2018-05-29T05:21:30.553Z,10.60
2018-05-29T05:22:30.482Z,12.00
2018-05-29T05:23:30.438Z,11.40
2018-05-29T05:24:30.342Z,11.00
2018-05-29T05:25:30.275Z,11.60
2018-05-29T05:26:30.205Z,12.80
2018-05-29T05:27:30.134Z,15.30
2018-05-29T05:28:30.067Z,16.50
2018-05-29T05:29:29.995Z,15.90
2018-05-29T05:30:29.926Z,17.70
2018-05-29T05:31:29.858Z,17.40
2018-05-29T05:32:29.786Z,16.50
2018-05-29T05:33:29.718Z,17.20
2018-05-29T05:34:29.648Z,17.10
2018-05-29T05:35:29.582Z,17.30
2018-05-29T05:36:29.509Z,15.30
2018-05-29T05:37:29.439Z,14.50
2018-05-29T05:38:29.369Z,13.10
2018-05-29T05:39:29.301Z,11.00
2018-05-29T05:40:29.231Z,10.80
2018-05-29T05:41:29.164Z,10.00
2018-05-29T05:42:29.095Z,12.20
2018-05-29T05:43:29.026Z,11.70
2018-05-29T05:44:28.954Z,10.90
2018-05-29T05:45:28.884Z,11.40
2018-05-29T05:46:28.814Z,13.50
2018-05-29T05:47:28.795Z,11.30
2018-05-29T05:48:28.674Z,9.90
2018-05-29T05:49:28.608Z,11.00
2018-05-29T05:50:28.538Z,11.60
2018-05-29T05:51:28.467Z,10.00
2018-05-29T05:52:28.398Z,9.90
2018-05-29T05:53:28.332Z,10.90
2018-05-29T05:54:28.263Z,10.30
2018-05-29T05:55:28.191Z,11.40
2018-05-29T05:56:28.122Z,11.00
2018-05-29T05:57:28.053Z,10.70
2018-05-29T05:58:28.005Z,11.40
2018-05-29T05:59:27.914Z,11.50
2018-05-29T06:00:27.845Z,11.80
2018-05-29T06:01:27.776Z,9.00
2018-05-29T06:02:27.706Z,9.90
2018-05-29T06:03:27.639Z,12.20
2018-05-29T06:04:27.569Z,10.50
2018-05-29T06:05:27.500Z,11.40
2018-05-29T06:06:27.431Z,10.70
2018-05-29T06:07:27.360Z,12.90
2018-05-29T06:08:27.292Z,12.40
2018-05-29T06:09:27.223Z,12.80
2018-05-29T06:10:27.153Z,10.10
2018-05-29T06:11:27.085Z,17.10
2018-05-29T06:12:27.022Z,9.90
2018-05-29T06:13:26.949Z,10.60
2018-05-29T06:14:26.880Z,9.70
2018-05-29T06:15:26.809Z,10.50
2018-05-29T06:16:26.791Z,9.30
2018-05-29T06:17:26.673Z,10.10
2018-05-29T06:18:26.603Z,9.90
2018-05-29T06:19:26.534Z,9.10
2018-05-29T06:20:26.465Z,9.20
2018-05-29T06:21:26.398Z,9.50
2018-05-29T06:22:26.330Z,9.70
2018-05-29T06:23:26.261Z,9.20
2018-05-29T06:24:26.234Z,9.00
2018-05-29T06:25:26.125Z,9.20
2018-05-29T06:26:26.057Z,9.50
2018-05-29T06:27:25.988Z,8.60
2018-05-29T06:28:25.922Z,9.90
2018-05-29T06:29:25.853Z,9.70
2018-05-29T06:30:25.784Z,9.50
2018-05-29T06:31:25.715Z,10.20
2018-05-29T06:32:25.648Z,10.40
2018-05-29T06:33:25.580Z,9.60
2018-05-29T06:34:25.525Z,8.70
2018-05-29T06:35:25.447Z,9.00
2018-05-29T06:36:25.375Z,8.70
2018-05-29T06:37:25.308Z,9.50
2018-05-29T06:38:25.239Z,10.10
2018-05-29T06:39:25.170Z,8.70
2018-05-29T06:40:25.103Z,9.30
2018-05-29T06:41:25.035Z,10.40
2018-05-29T06:42:24.966Z,9.50
2018-05-29T06:43:24.905Z,9.80
2018-05-29T06:44:24.832Z,10.10
2018-05-29T06:45:24.763Z,9.50
2018-05-29T06:46:24.695Z,9.60
2018-05-29T06:47:24.626Z,9.10
2018-05-29T06:48:24.559Z,10.70
2018-05-29T06:49:24.491Z,10.00
2018-05-29T06:50:24.422Z,9.20
2018-05-29T06:51:24.354Z,9.30
2018-05-29T06:52:24.286Z,10.70
2018-05-29T06:53:24.218Z,9.00
2018-05-29T06:54:24.150Z,10.20
2018-05-29T06:55:24.082Z,10.50
2018-05-29T06:56:24.014Z,10.20
2018-05-29T06:57:23.947Z,10.10
2018-05-29T06:58:23.877Z,11.10
2018-05-29T06:59:23.813Z,9.50
2018-05-29T07:00:23.742Z,9.60
2018-05-29T07:01:23.674Z,9.40
2018-05-29T07:02:23.605Z,9.40
2018-05-29T07:03:23.537Z,9.20
2018-05-29T07:04:23.470Z,8.20
2018-05-29T07:05:23.402Z,8.40
2018-05-29T07:06:23.335Z,8.20
2018-05-29T07:07:23.265Z,9.20
2018-05-29T07:08:23.198Z,9.20
2018-05-29T07:09:23.129Z,10.00
2018-05-29T07:10:23.060Z,9.00
2018-05-29T07:11:22.993Z,8.80
2018-05-29T07:12:22.925Z,9.60
2018-05-29T07:13:22.858Z,8.60
2018-05-29T07:14:22.788Z,9.20
2018-05-29T07:15:22.721Z,9.50
2018-05-29T07:16:22.653Z,9.10
2018-05-29T07:17:22.586Z,10.10
2018-05-29T07:18:22.516Z,8.90
2018-05-29T07:19:22.459Z,9.40
2018-05-29T07:20:22.380Z,8.40
2018-05-29T07:21:22.312Z,8.70
2018-05-29T07:22:22.244Z,8.90
2018-05-29T07:23:22.181Z,8.80
2018-05-29T07:24:22.108Z,11.20
2018-05-29T07:25:22.040Z,8.70
2018-05-29T07:26:21.971Z,9.90
2018-05-29T07:27:21.964Z,9.30
2018-05-29T07:28:21.840Z,9.60
2018-05-29T07:29:21.770Z,9.40
2018-05-29T07:30:21.702Z,8.70
2018-05-29T07:31:21.634Z,9.10
2018-05-29T07:32:21.566Z,9.00
2018-05-29T07:33:21.498Z,9.00
2018-05-29T07:34:21.430Z,9.50
2018-05-29T07:35:21.364Z,9.30
2018-05-29T07:36:21.294Z,9.40
2018-05-29T07:37:21.228Z,10.00
2018-05-29T07:38:21.161Z,9.10
2018-05-29T07:39:21.093Z,8.90
2018-05-29T07:40:21.026Z,9.50
2018-05-29T07:41:20.956Z,8.60
2018-05-29T07:42:20.889Z,10.60
2018-05-29T07:43:20.821Z,9.10
2018-05-29T07:44:20.854Z,8.80
2018-05-29T07:45:20.687Z,8.70
2018-05-29T07:46:20.619Z,9.10
2018-05-29T07:47:20.552Z,9.50
2018-05-29T07:48:20.488Z,8.50
2018-05-29T07:49:20.416Z,8.90
2018-05-29T07:50:20.350Z,12.80
2018-05-29T07:51:20.282Z,8.20
2018-05-29T07:52:20.216Z,8.80
2018-05-29T07:53:20.149Z,8.90
2018-05-29T07:54:20.081Z,8.80
2018-05-29T07:55:20.013Z,8.90
2018-05-29T07:56:19.946Z,10.90
2018-05-29T07:57:19.880Z,8.70
2018-05-29T07:58:19.811Z,8.10
2018-05-29T07:59:19.746Z,8.20
2018-05-29T08:00:19.677Z,10.70
2018-05-29T08:01:19.614Z,9.00
2018-05-29T08:02:19.543Z,8.70
2018-05-29T08:03:19.477Z,8.20
2018-05-29T08:04:19.409Z,8.70
2018-05-29T08:05:19.342Z,8.80
2018-05-29T08:06:19.277Z,8.40
2018-05-29T08:07:19.207Z,7.80
2018-05-29T08:08:19.142Z,8.30
2018-05-29T08:09:19.075Z,8.40
2018-05-29T08:10:19.006Z,8.30
2018-05-29T08:11:18.946Z,8.60
2018-05-29T08:12:18.873Z,8.00
2018-05-29T08:13:18.807Z,9.60
2018-05-29T08:14:18.741Z,7.70
2018-05-29T08:15:18.672Z,8.10
2018-05-29T08:16:18.605Z,7.60
2018-05-29T08:17:18.538Z,7.90
2018-05-29T08:18:18.473Z,7.70
2018-05-29T08:19:18.409Z,7.70
2018-05-29T08:20:18.336Z,8.30
2018-05-29T08:21:18.269Z,8.30
2018-05-29T08:22:18.202Z,8.30
2018-05-29T08:23:18.134Z,8.10
2018-05-29T08:24:18.071Z,7.20
2018-05-29T08:25:18.001Z,7.40
2018-05-29T08:26:17.933Z,7.20
2018-05-29T08:27:17.865Z,7.70
2018-05-29T08:28:17.805Z,9.10
2018-05-29T08:29:17.733Z,12.50
2018-05-29T08:30:17.664Z,8.00
2018-05-29T08:31:17.597Z,7.50
2018-05-29T08:32:17.530Z,7.30
2018-05-29T08:33:17.464Z,7.20
2018-05-29T08:34:17.398Z,7.50
2018-05-29T08:35:17.329Z,7.80
2018-05-29T08:36:17.263Z,7.80
2018-05-29T08:37:17.196Z,7.30
2018-05-29T08:38:17.127Z,7.80
2018-05-29T08:39:17.061Z,8.00
2018-05-29T08:40:16.995Z,8.20
2018-05-29T08:41:16.930Z,7.50
2018-05-29T08:42:16.860Z,8.60
2018-05-29T08:43:16.793Z,7.70
2018-05-29T08:44:16.733Z,7.00
2018-05-29T08:45:16.663Z,8.00
2018-05-29T08:46:16.643Z,6.70
2018-05-29T08:47:16.527Z,7.50
2018-05-29T08:48:16.461Z,8.00
2018-05-29T08:49:16.394Z,7.30
2018-05-29T08:50:16.327Z,9.70
2018-05-29T08:51:16.260Z,7.30
2018-05-29T08:52:16.209Z,6.90
2018-05-29T08:53:16.126Z,7.20
2018-05-29T08:54:16.058Z,7.30
2018-05-29T08:55:15.991Z,7.50
2018-05-29T08:56:15.925Z,6.70
2018-05-29T08:57:15.909Z,9.50
2018-05-29T08:58:15.791Z,7.70
2018-05-29T08:59:15.725Z,7.90
2018-05-29T09:00:15.659Z,8.10
2018-05-29T09:01:15.597Z,7.80
2018-05-29T09:02:15.526Z,7.70
2018-05-29T09:03:15.459Z,7.50
2018-05-29T09:04:15.413Z,7.50
2018-05-29T09:05:15.329Z,7.70
2018-05-29T09:06:15.256Z,7.90
2018-05-29T09:07:15.189Z,7.60
2018-05-29T09:08:15.123Z,7.90
2018-05-29T09:09:15.055Z,7.40
2018-05-29T09:10:14.987Z,7.50
2018-05-29T09:11:14.921Z,8.00
2018-05-29T09:12:14.855Z,8.50
2018-05-29T09:13:14.787Z,7.30
2018-05-29T09:14:14.723Z,9.10
2018-05-29T09:15:14.654Z,7.50
2018-05-29T09:16:14.591Z,7.10
2018-05-29T09:17:14.523Z,7.80
2018-05-29T09:18:14.455Z,7.80
2018-05-29T09:19:14.387Z,10.10
2018-05-29T09:20:14.319Z,7.70
2018-05-29T09:21:14.255Z,7.40
2018-05-29T09:22:14.187Z,11.10
2018-05-29T09:23:14.123Z,7.60
2018-05-29T09:24:14.053Z,9.60
2018-05-29T09:25:13.986Z,7.70
2018-05-29T09:26:13.918Z,8.20
2018-05-29T09:27:13.856Z,8.20
2018-05-29T09:28:13.790Z,7.40
2018-05-29T09:29:13.721Z,8.20
2018-05-29T09:30:13.653Z,8.10
2018-05-29T09:31:13.588Z,7.20
2018-05-29T09:32:13.521Z,7.70
2018-05-29T09:33:13.458Z,8.30
2018-05-29T09:34:13.392Z,8.30
2018-05-29T09:35:13.322Z,10.50
2018-05-29T09:36:13.255Z,7.20
2018-05-29T09:37:13.189Z,9.60
2018-05-29T09:38:13.123Z,8.30
2018-05-29T09:39:13.060Z,7.70
2018-05-29T09:40:12.991Z,7.50
2018-05-29T09:41:12.923Z,7.80
2018-05-29T09:42:12.857Z,7.60
2018-05-29T09:43:12.789Z,8.10
2018-05-29T09:44:12.722Z,7.30
2018-05-29T09:45:12.657Z,7.60
2018-05-29T09:46:12.589Z,8.30
2018-05-29T09:47:12.522Z,7.00
2018-05-29T09:48:12.480Z,8.10
2018-05-29T09:49:12.391Z,7.80
2018-05-29T09:50:12.323Z,7.80
2018-05-29T09:51:12.257Z,7.40
2018-05-29T09:52:12.193Z,6.60
2018-05-29T09:53:12.127Z,6.90
2018-05-29T09:54:12.060Z,7.10
2018-05-29T09:55:11.991Z,7.10
2018-05-29T09:56:11.925Z,7.60
2018-05-29T09:57:11.858Z,7.10
2018-05-29T09:58:11.789Z,6.80
2018-05-29T09:59:11.725Z,7.70
2018-05-29T10:00:11.658Z,6.70
2018-05-29T10:01:11.647Z,7.50
2018-05-29T10:02:11.526Z,6.70
2018-05-29T10:03:11.459Z,7.10
2018-05-29T10:04:11.393Z,7.30
2018-05-29T10:05:11.327Z,7.30
2018-05-29T10:06:11.261Z,7.60
2018-05-29T10:07:11.197Z,7.00
2018-05-29T10:08:11.127Z,7.10
2018-05-29T10:09:11.061Z,7.30
2018-05-29T10:10:10.994Z,6.90
2018-05-29T10:11:10.930Z,8.10
2018-05-29T10:12:10.862Z,7.50
2018-05-29T10:13:10.848Z,8.80
2018-05-29T10:14:10.729Z,7.90
2018-05-29T10:15:10.663Z,7.90
2018-05-29T10:16:10.598Z,8.80
2018-05-29T10:17:10.532Z,8.00
2018-05-29T10:18:10.463Z,7.80
2018-05-29T10:19:10.398Z,10.30
2018-05-29T10:20:10.332Z,8.60
2018-05-29T10:21:10.269Z,8.10
2018-05-29T10:22:10.203Z,8.10
2018-05-29T10:23:10.136Z,7.80
2018-05-29T10:24:10.068Z,7.00
2018-05-29T10:25:10.002Z,7.80
2018-05-29T10:26:09.935Z,9.20
2018-05-29T10:27:09.869Z,9.30
2018-05-29T10:28:09.804Z,8.00
2018-05-29T10:29:09.737Z,7.60
2018-05-29T10:30:09.670Z,7.90
2018-05-29T10:31:09.604Z,9.00
2018-05-29T10:32:09.539Z,7.70
2018-05-29T10:33:09.471Z,8.50
2018-05-29T10:34:09.411Z,8.90
2018-05-29T10:35:09.339Z,9.00
2018-05-29T10:36:09.275Z,7.90
2018-05-29T10:37:09.206Z,8.00
2018-05-29T10:38:09.141Z,9.20
2018-05-29T10:39:09.075Z,8.10
2018-05-29T10:40:09.010Z,8.80
2018-05-29T10:41:08.946Z,9.50
2018-05-29T10:42:08.877Z,8.10
2018-05-29T10:43:08.812Z,8.40
2018-05-29T10:44:08.745Z,8.60
2018-05-29T10:45:08.681Z,8.40
2018-05-29T10:46:08.712Z,8.80
2018-05-29T10:47:08.549Z,9.50
2018-05-29T10:48:08.483Z,10.00
2018-05-29T10:49:08.425Z,8.80
2018-05-29T10:50:08.351Z,8.90
2018-05-29T10:51:08.286Z,8.60
2018-05-29T10:52:08.218Z,8.40
2018-05-29T10:53:08.154Z,8.90
2018-05-29T10:54:08.093Z,9.10
2018-05-29T10:55:08.023Z,9.30
2018-05-29T10:56:07.958Z,9.30
2018-05-29T10:57:07.892Z,9.50
2018-05-29T10:58:07.828Z,8.40
2018-05-29T10:59:07.807Z,8.60
2018-05-29T11:00:07.702Z,8.80
2018-05-29T11:01:07.634Z,9.00
2018-05-29T11:02:07.566Z,10.20
2018-05-29T11:03:07.501Z,8.80
2018-05-29T11:04:07.436Z,8.20
2018-05-29T11:05:07.372Z,8.60
2018-05-29T11:06:07.306Z,8.20
2018-05-29T11:07:07.242Z,8.90
2018-05-29T11:08:07.176Z,8.90
2018-05-29T11:09:07.112Z,9.70
2018-05-29T11:10:07.045Z,9.00
2018-05-29T11:11:06.982Z,9.80
2018-05-29T11:12:06.916Z,10.20
2018-05-29T11:13:06.858Z,9.30
2018-05-29T11:14:06.787Z,9.00
2018-05-29T11:15:06.723Z,9.30
2018-05-29T11:16:06.659Z,9.80
2018-05-29T11:17:06.594Z,8.50
2018-05-29T11:18:06.531Z,9.90
2018-05-29T11:19:06.465Z,8.60
2018-05-29T11:20:06.431Z,7.90
2018-05-29T11:21:06.351Z,9.00
2018-05-29T11:22:06.272Z,8.90
2018-05-29T11:23:06.252Z,8.00
2018-05-29T11:24:06.145Z,8.40
2018-05-29T11:25:06.081Z,9.10
2018-05-29T11:26:06.017Z,9.70
2018-05-29T11:27:05.957Z,8.70
2018-05-29T11:28:05.896Z,9.40
2018-05-29T11:29:05.826Z,8.10
2018-05-29T11:30:05.763Z,8.30
2018-05-29T11:31:05.697Z,7.80
2018-05-29T11:32:05.635Z,8.40
2018-05-29T11:33:05.570Z,8.00
2018-05-29T11:34:05.507Z,10.80
2018-05-29T11:35:05.442Z,8.60
2018-05-29T11:36:05.379Z,9.80
2018-05-29T11:37:05.316Z,8.80
2018-05-29T11:38:05.255Z,9.40
2018-05-29T11:39:05.189Z,9.20
2018-05-29T11:40:05.127Z,8.90
2018-05-29T11:41:05.063Z,8.50
2018-05-29T11:42:04.998Z,9.20
2018-05-29T11:43:04.936Z,8.30
2018-05-29T11:44:04.871Z,9.20
2018-05-29T11:45:04.811Z,8.30
2018-05-29T11:46:04.745Z,9.00
2018-05-29T11:47:04.682Z,9.10
2018-05-29T11:48:04.619Z,8.30
2018-05-29T11:49:04.555Z,8.40
2018-05-29T11:50:04.491Z,9.60
2018-05-29T11:51:04.426Z,10.90
2018-05-29T11:52:04.363Z,9.40
2018-05-29T11:53:04.299Z,8.30
2018-05-29T11:54:04.235Z,8.80
2018-05-29T11:55:04.171Z,8.90
2018-05-29T11:56:04.108Z,9.00
2018-05-29T11:57:04.043Z,9.10
2018-05-29T11:58:03.978Z,8.70
2018-05-29T11:59:03.918Z,9.20
2018-05-29T12:00:03.850Z,9.00
2018-05-29T12:01:03.789Z,8.40
2018-05-29T12:02:03.724Z,9.00
2018-05-29T12:03:03.661Z,8.30
2018-05-29T12:04:03.600Z,10.70
2018-05-29T12:05:03.537Z,8.40
2018-05-29T12:06:03.479Z,8.00
2018-05-29T12:07:03.414Z,8.30
2018-05-29T12:08:03.352Z,8.40
2018-05-29T12:09:03.292Z,8.00
2018-05-29T12:10:03.233Z,7.70
2018-05-29T12:11:03.172Z,7.90
2018-05-29T12:12:03.113Z,7.90
2018-05-29T12:13:03.053Z,10.60
2018-05-29T12:14:02.992Z,7.80
2018-05-29T12:15:02.937Z,10.50
2018-05-29T12:16:02.876Z,8.40
2018-05-29T12:17:02.818Z,7.60
2018-05-29T12:18:02.760Z,7.60
2018-05-29T12:19:02.707Z,8.50
2018-05-29T12:20:02.649Z,8.00
2018-05-29T12:21:02.589Z,7.60
2018-05-29T12:22:02.530Z,8.10
2018-05-29T12:23:02.475Z,7.70
2018-05-29T12:24:02.417Z,7.60
2018-05-29T12:25:02.361Z,8.40
2018-05-29T12:26:02.305Z,7.30
2018-05-29T12:27:02.245Z,7.40
2018-05-29T12:28:02.190Z,8.10
2018-05-29T12:29:02.135Z,8.10
2018-05-29T12:30:02.075Z,8.00
2018-05-29T12:31:02.019Z,7.60
2018-05-29T12:32:01.963Z,8.70
2018-05-29T12:33:01.908Z,7.60
2018-05-29T12:34:01.851Z,8.50
2018-05-29T12:35:01.796Z,9.70
2018-05-29T12:36:01.739Z,8.80
2018-05-29T12:37:01.682Z,8.80
2018-05-29T12:38:01.624Z,7.80
2018-05-29T12:39:01.567Z,7.50
2018-05-29T12:40:01.512Z,7.90
2018-05-29T12:41:01.454Z,7.30
2018-05-29T12:42:01.400Z,7.80
2018-05-29T12:43:01.340Z,7.50
2018-05-29T12:44:01.283Z,8.00
2018-05-29T12:45:01.225Z,8.50
2018-05-29T12:46:01.166Z,8.50
2018-05-29T12:47:01.110Z,8.40
2018-05-29T12:48:01.051Z,8.70
2018-05-29T12:49:00.994Z,8.80
2018-05-29T12:50:00.954Z,7.60
2018-05-29T12:51:00.876Z,9.00
2018-05-29T12:52:00.818Z,8.50
2018-05-29T12:53:00.766Z,8.70
2018-05-29T12:54:00.701Z,8.70
2018-05-29T12:55:00.642Z,8.70
2018-05-29T12:56:00.586Z,9.00
2018-05-29T12:57:00.531Z,8.60
2018-05-29T12:58:00.465Z,8.20
2018-05-29T12:59:00.408Z,8.40
2018-05-29T13:00:00.348Z,7.90
2018-05-29T13:01:00.288Z,7.80
2018-05-29T13:02:00.229Z,9.40
2018-05-29T13:03:00.170Z,10.40
2018-05-29T13:04:00.112Z,8.30
2018-05-29T13:05:00.052Z,8.00
2018-05-29T13:05:59.993Z,9.80
2018-05-29T13:06:59.934Z,8.60
2018-05-29T13:07:59.876Z,8.10
2018-05-29T13:08:59.817Z,7.90
2018-05-29T13:09:59.758Z,8.00